sensor_id;sensor_type;location;lat;lon;timestamp;temperature;humidity
11079;DHT22;5592;49.234;7.268;2022-12-18T00:00:29;-10.60;99.90
11079;DHT22;5592;49.234;7.268;2022-12-18T00:02:55;-10.60;99.90
11079;DHT22;5592;49.234;7.268;2022-12-18T00:05:21;-10.60;99.90
11079;DHT22;5592;49.234;7.268;2022-12-18T00:07:47;-10.70;99.90
11079;DHT22;5592;49.234;7.268;2022-12-18T00:10:12;-10.70;99.90
11079;DHT22;5592;49.234;7.268;2022-12-18T00:12:38;-10.70;99.90
11079;DHT22;5592;49.234;7.268;2022-12-18T00:15:04;-10.70;99.90
11079;DHT22;5592;49.234;7.268;2022-12-18T00:17:29;-10.60;99.90
11079;DHT22;5592;49.234;7.268;2022-12-18T00:19:55;-10.40;99.90
11079;DHT22;5592;49.234;7.268;2022-12-18T00:22:20;-10.20;99.90
11079;DHT22;5592;49.234;7.268;2022-12-18T00:24:46;-10.10;99.90
11079;DHT22;5592;49.234;7.268;2022-12-18T00:27:12;-10.10;99.90
11079;DHT22;5592;49.234;7.268;2022-12-18T00:29:37;-10.10;99.90
11079;DHT22;5592;49.234;7.268;2022-12-18T00:32:03;-10.10;99.90
11079;DHT22;5592;49.234;7.268;2022-12-18T00:34:28;-10.10;99.90
11079;DHT22;5592;49.234;7.268;2022-12-18T00:36:54;-10.20;99.90
11079;DHT22;5592;49.234;7.268;2022-12-18T00:39:19;-10.20;99.90
11079;DHT22;5592;49.234;7.268;2022-12-18T00:41:45;-10.30;99.90
11079;DHT22;5592;49.234;7.268;2022-12-18T00:44:29;-10.30;99.90
11079;DHT22;5592;49.234;7.268;2022-12-18T00:46:55;-10.30;99.90
11079;DHT22;5592;49.234;7.268;2022-12-18T00:49:20;-10.30;99.90
11079;DHT22;5592;49.234;7.268;2022-12-18T00:51:47;-10.30;99.90
11079;DHT22;5592;49.234;7.268;2022-12-18T00:54:13;-10.20;99.90
11079;DHT22;5592;49.234;7.268;2022-12-18T00:56:39;-10.10;99.90
11079;DHT22;5592;49.234;7.268;2022-12-18T00:59:05;-10.00;99.90
11079;DHT22;5592;49.234;7.268;2022-12-18T01:01:31;-9.90;99.90
11079;DHT22;5592;49.234;7.268;2022-12-18T01:03:59;-9.90;99.90
11079;DHT22;5592;49.234;7.268;2022-12-18T01:06:24;-9.90;99.90
11079;DHT22;5592;49.234;7.268;2022-12-18T01:08:50;-9.80;99.90
11079;DHT22;5592;49.234;7.268;2022-12-18T01:11:17;-9.80;99.90
11079;DHT22;5592;49.234;7.268;2022-12-18T01:13:44;-9.80;99.90
11079;DHT22;5592;49.234;7.268;2022-12-18T01:16:14;-9.80;99.90
11079;DHT22;5592;49.234;7.268;2022-12-18T01:18:40;-9.80;99.90
11079;DHT22;5592;49.234;7.268;2022-12-18T01:21:10;-9.80;99.90
11079;DHT22;5592;49.234;7.268;2022-12-18T01:23:37;-9.70;99.90
11079;DHT22;5592;49.234;7.268;2022-12-18T01:26:08;-9.60;99.90
11079;DHT22;5592;49.234;7.268;2022-12-18T01:28:34;-9.50;99.90
11079;DHT22;5592;49.234;7.268;2022-12-18T01:31:15;-9.40;99.90
11079;DHT22;5592;49.234;7.268;2022-12-18T01:33:42;-9.30;99.90
11079;DHT22;5592;49.234;7.268;2022-12-18T01:36:14;-9.30;99.90
11079;DHT22;5592;49.234;7.268;2022-12-18T01:38:39;-9.20;99.90
11079;DHT22;5592;49.234;7.268;2022-12-18T01:41:05;-9.20;99.90
11079;DHT22;5592;49.234;7.268;2022-12-18T01:43:53;-9.10;99.90
11079;DHT22;5592;49.234;7.268;2022-12-18T01:46:22;-9.10;99.90
11079;DHT22;5592;49.234;7.268;2022-12-18T01:48:54;-9.10;99.90
11079;DHT22;5592;49.234;7.268;2022-12-18T01:51:21;-9.00;99.90
11079;DHT22;5592;49.234;7.268;2022-12-18T01:53:48;-9.00;99.90
11079;DHT22;5592;49.234;7.268;2022-12-18T01:56:16;-9.10;99.90
11079;DHT22;5592;49.234;7.268;2022-12-18T01:59:03;-9.10;99.90
11079;DHT22;5592;49.234;7.268;2022-12-18T02:01:30;-9.10;99.90
11079;DHT22;5592;49.234;7.268;2022-12-18T02:04:21;-9.10;99.90
11079;DHT22;5592;49.234;7.268;2022-12-18T02:09:57;-9.10;99.90
11079;DHT22;5592;49.234;7.268;2022-12-18T02:12:27;-9.20;99.90
11079;DHT22;5592;49.234;7.268;2022-12-18T02:15:00;-9.20;99.90
11079;DHT22;5592;49.234;7.268;2022-12-18T02:17:40;-9.30;99.90
11079;DHT22;5592;49.234;7.268;2022-12-18T02:28:23;-9.70;99.90
11079;DHT22;5592;49.234;7.268;2022-12-18T02:30:52;-9.80;99.90
11079;DHT22;5592;49.234;7.268;2022-12-18T02:33:19;-9.90;99.90
11079;DHT22;5592;49.234;7.268;2022-12-18T02:35:47;-9.90;99.90
11079;DHT22;5592;49.234;7.268;2022-12-18T02:38:14;-9.90;99.90
11079;DHT22;5592;49.234;7.268;2022-12-18T02:40:42;-9.90;99.90
11079;DHT22;5592;49.234;7.268;2022-12-18T02:43:11;-9.90;99.90
11079;DHT22;5592;49.234;7.268;2022-12-18T02:45:57;-9.90;99.90
11079;DHT22;5592;49.234;7.268;2022-12-18T02:48:33;-9.90;99.90
11079;DHT22;5592;49.234;7.268;2022-12-18T02:51:18;-10.00;99.90
11079;DHT22;5592;49.234;7.268;2022-12-18T02:53:58;-10.00;99.90
11079;DHT22;5592;49.234;7.268;2022-12-18T02:56:36;-10.10;99.90
11079;DHT22;5592;49.234;7.268;2022-12-18T02:59:29;-10.20;99.90
11079;DHT22;5592;49.234;7.268;2022-12-18T03:02:05;-10.20;99.90
11079;DHT22;5592;49.234;7.268;2022-12-18T03:04:41;-10.30;99.90
11079;DHT22;5592;49.234;7.268;2022-12-18T03:07:16;-10.30;99.90
11079;DHT22;5592;49.234;7.268;2022-12-18T03:09:48;-10.40;99.90
11079;DHT22;5592;49.234;7.268;2022-12-18T03:12:23;-10.40;99.90
11079;DHT22;5592;49.234;7.268;2022-12-18T03:15:03;-10.40;99.90
11079;DHT22;5592;49.234;7.268;2022-12-18T03:17:31;-10.50;99.90
11079;DHT22;5592;49.234;7.268;2022-12-18T03:20:03;-10.50;99.90
11079;DHT22;5592;49.234;7.268;2022-12-18T03:22:31;-10.50;99.90
11079;DHT22;5592;49.234;7.268;2022-12-18T03:25:00;-10.50;99.90
11079;DHT22;5592;49.234;7.268;2022-12-18T03:27:27;-10.60;99.90
11079;DHT22;5592;49.234;7.268;2022-12-18T03:30:06;-10.50;99.90
11079;DHT22;5592;49.234;7.268;2022-12-18T03:32:44;-10.40;99.90
11079;DHT22;5592;49.234;7.268;2022-12-18T03:35:15;-10.40;99.90
11079;DHT22;5592;49.234;7.268;2022-12-18T03:37:42;-10.30;99.90
11079;DHT22;5592;49.234;7.268;2022-12-18T03:40:08;-10.20;99.90
11079;DHT22;5592;49.234;7.268;2022-12-18T03:42:53;-10.20;99.90
11079;DHT22;5592;49.234;7.268;2022-12-18T03:45:34;-10.20;99.90
11079;DHT22;5592;49.234;7.268;2022-12-18T03:48:07;-10.30;99.90
11079;DHT22;5592;49.234;7.268;2022-12-18T03:50:58;-10.50;99.90
11079;DHT22;5592;49.234;7.268;2022-12-18T03:53:55;-10.60;99.90
11079;DHT22;5592;49.234;7.268;2022-12-18T03:56:25;-10.60;99.90
11079;DHT22;5592;49.234;7.268;2022-12-18T03:58:52;-10.70;99.90
11079;DHT22;5592;49.234;7.268;2022-12-18T04:01:20;-10.70;99.90
11079;DHT22;5592;49.234;7.268;2022-12-18T04:03:49;-10.80;99.90
11079;DHT22;5592;49.234;7.268;2022-12-18T04:06:16;-10.80;99.90
11079;DHT22;5592;49.234;7.268;2022-12-18T04:08:43;-10.90;99.90
11079;DHT22;5592;49.234;7.268;2022-12-18T04:11:09;-10.80;99.90
11079;DHT22;5592;49.234;7.268;2022-12-18T04:13:36;-10.70;99.90
11079;DHT22;5592;49.234;7.268;2022-12-18T04:16:02;-10.70;99.90
11079;DHT22;5592;49.234;7.268;2022-12-18T04:18:28;-10.70;99.90
11079;DHT22;5592;49.234;7.268;2022-12-18T04:20:53;-10.70;99.90
11079;DHT22;5592;49.234;7.268;2022-12-18T04:23:19;-10.80;99.90
11079;DHT22;5592;49.234;7.268;2022-12-18T04:25:46;-10.90;99.90
11079;DHT22;5592;49.234;7.268;2022-12-18T04:28:12;-11.00;99.90
11079;DHT22;5592;49.234;7.268;2022-12-18T04:30:37;-11.10;99.90
11079;DHT22;5592;49.234;7.268;2022-12-18T04:33:03;-11.10;99.90
11079;DHT22;5592;49.234;7.268;2022-12-18T04:35:29;-11.20;99.90
11079;DHT22;5592;49.234;7.268;2022-12-18T04:37:55;-11.20;99.90
11079;DHT22;5592;49.234;7.268;2022-12-18T04:40:21;-11.30;99.90
11079;DHT22;5592;49.234;7.268;2022-12-18T04:42:46;-11.30;99.90
11079;DHT22;5592;49.234;7.268;2022-12-18T04:45:12;-11.30;99.90
11079;DHT22;5592;49.234;7.268;2022-12-18T04:47:38;-11.30;99.90
11079;DHT22;5592;49.234;7.268;2022-12-18T04:50:04;-11.30;99.90
11079;DHT22;5592;49.234;7.268;2022-12-18T04:52:31;-11.20;99.90
11079;DHT22;5592;49.234;7.268;2022-12-18T04:54:56;-11.00;99.90
11079;DHT22;5592;49.234;7.268;2022-12-18T04:57:22;-11.00;99.90
11079;DHT22;5592;49.234;7.268;2022-12-18T04:59:47;-11.00;99.90
11079;DHT22;5592;49.234;7.268;2022-12-18T05:02:13;-11.00;99.90
11079;DHT22;5592;49.234;7.268;2022-12-18T05:04:39;-11.10;99.90
11079;DHT22;5592;49.234;7.268;2022-12-18T05:07:04;-11.10;99.90
11079;DHT22;5592;49.234;7.268;2022-12-18T05:09:30;-11.10;99.90
11079;DHT22;5592;49.234;7.268;2022-12-18T05:11:55;-11.10;99.90
11079;DHT22;5592;49.234;7.268;2022-12-18T05:14:21;-11.20;99.90
11079;DHT22;5592;49.234;7.268;2022-12-18T05:16:47;-11.20;99.90
11079;DHT22;5592;49.234;7.268;2022-12-18T05:19:12;-11.20;99.90
11079;DHT22;5592;49.234;7.268;2022-12-18T05:21:38;-11.20;99.90
11079;DHT22;5592;49.234;7.268;2022-12-18T05:24:04;-11.30;99.90
11079;DHT22;5592;49.234;7.268;2022-12-18T05:26:30;-11.30;99.90
11079;DHT22;5592;49.234;7.268;2022-12-18T05:28:56;-11.30;99.90
11079;DHT22;5592;49.234;7.268;2022-12-18T05:31:22;-11.30;99.90
11079;DHT22;5592;49.234;7.268;2022-12-18T05:33:49;-11.30;99.90
11079;DHT22;5592;49.234;7.268;2022-12-18T05:36:14;-11.30;99.90
11079;DHT22;5592;49.234;7.268;2022-12-18T05:38:40;-11.20;99.90
11079;DHT22;5592;49.234;7.268;2022-12-18T05:41:07;-11.20;99.90
11079;DHT22;5592;49.234;7.268;2022-12-18T05:43:38;-11.20;99.90
11079;DHT22;5592;49.234;7.268;2022-12-18T05:46:11;-11.30;99.90
11079;DHT22;5592;49.234;7.268;2022-12-18T05:48:37;-11.30;99.90
11079;DHT22;5592;49.234;7.268;2022-12-18T05:51:08;-11.40;99.90
11079;DHT22;5592;49.234;7.268;2022-12-18T05:53:34;-11.50;99.90
11079;DHT22;5592;49.234;7.268;2022-12-18T05:56:02;-11.50;99.90
11079;DHT22;5592;49.234;7.268;2022-12-18T05:58:28;-11.50;99.90
11079;DHT22;5592;49.234;7.268;2022-12-18T06:00:54;-11.60;99.90
11079;DHT22;5592;49.234;7.268;2022-12-18T06:03:20;-11.60;99.90
11079;DHT22;5592;49.234;7.268;2022-12-18T06:05:45;-11.60;99.90
11079;DHT22;5592;49.234;7.268;2022-12-18T06:08:12;-11.60;99.90
11079;DHT22;5592;49.234;7.268;2022-12-18T06:10:38;-11.70;99.90
11079;DHT22;5592;49.234;7.268;2022-12-18T06:13:05;-11.70;99.90
11079;DHT22;5592;49.234;7.268;2022-12-18T06:15:31;-11.70;99.90
11079;DHT22;5592;49.234;7.268;2022-12-18T06:17:56;-11.70;99.90
11079;DHT22;5592;49.234;7.268;2022-12-18T06:20:22;-11.70;99.90
11079;DHT22;5592;49.234;7.268;2022-12-18T06:22:48;-11.70;99.90
11079;DHT22;5592;49.234;7.268;2022-12-18T06:25:14;-11.70;99.90
11079;DHT22;5592;49.234;7.268;2022-12-18T06:27:40;-11.80;99.90
11079;DHT22;5592;49.234;7.268;2022-12-18T06:30:06;-11.80;99.90
11079;DHT22;5592;49.234;7.268;2022-12-18T06:32:31;-11.80;99.90
11079;DHT22;5592;49.234;7.268;2022-12-18T06:34:57;-11.80;99.90
11079;DHT22;5592;49.234;7.268;2022-12-18T06:37:23;-11.80;99.90
11079;DHT22;5592;49.234;7.268;2022-12-18T06:39:54;-11.90;99.90
11079;DHT22;5592;49.234;7.268;2022-12-18T06:42:21;-11.90;99.90
11079;DHT22;5592;49.234;7.268;2022-12-18T06:44:47;-11.90;99.90
11079;DHT22;5592;49.234;7.268;2022-12-18T06:47:13;-11.90;99.90
11079;DHT22;5592;49.234;7.268;2022-12-18T06:49:38;-11.90;99.90
11079;DHT22;5592;49.234;7.268;2022-12-18T06:52:04;-12.00;99.90
11079;DHT22;5592;49.234;7.268;2022-12-18T06:54:30;-12.00;99.90
11079;DHT22;5592;49.234;7.268;2022-12-18T06:56:55;-12.00;99.90
11079;DHT22;5592;49.234;7.268;2022-12-18T06:59:21;-12.00;99.90
11079;DHT22;5592;49.234;7.268;2022-12-18T07:01:47;-11.90;99.90
11079;DHT22;5592;49.234;7.268;2022-12-18T07:04:12;-11.90;99.90
11079;DHT22;5592;49.234;7.268;2022-12-18T07:06:38;-11.70;99.90
11079;DHT22;5592;49.234;7.268;2022-12-18T07:09:04;-11.60;99.90
11079;DHT22;5592;49.234;7.268;2022-12-18T07:11:32;-11.60;99.90
11079;DHT22;5592;49.234;7.268;2022-12-18T07:13:58;-11.60;99.90
11079;DHT22;5592;49.234;7.268;2022-12-18T07:16:23;-11.60;99.90
11079;DHT22;5592;49.234;7.268;2022-12-18T07:18:49;-11.60;99.90
11079;DHT22;5592;49.234;7.268;2022-12-18T07:21:18;-11.60;99.90
11079;DHT22;5592;49.234;7.268;2022-12-18T07:23:45;-11.50;99.90
11079;DHT22;5592;49.234;7.268;2022-12-18T07:26:14;-11.50;99.90
11079;DHT22;5592;49.234;7.268;2022-12-18T07:28:40;-11.40;99.90
11079;DHT22;5592;49.234;7.268;2022-12-18T07:31:09;-11.40;99.90
11079;DHT22;5592;49.234;7.268;2022-12-18T07:33:35;-11.30;99.90
11079;DHT22;5592;49.234;7.268;2022-12-18T07:36:03;-11.30;99.90
11079;DHT22;5592;49.234;7.268;2022-12-18T07:38:29;-11.20;99.90
11079;DHT22;5592;49.234;7.268;2022-12-18T07:41:03;-11.20;99.90
11079;DHT22;5592;49.234;7.268;2022-12-18T07:43:29;-11.10;99.90
11079;DHT22;5592;49.234;7.268;2022-12-18T07:45:55;-11.00;99.90
11079;DHT22;5592;49.234;7.268;2022-12-18T07:48:21;-10.90;99.90
11079;DHT22;5592;49.234;7.268;2022-12-18T07:50:46;-10.80;99.90
11079;DHT22;5592;49.234;7.268;2022-12-18T07:53:12;-10.70;99.90
11079;DHT22;5592;49.234;7.268;2022-12-18T07:55:37;-10.60;99.90
11079;DHT22;5592;49.234;7.268;2022-12-18T07:58:04;-10.40;99.90
11079;DHT22;5592;49.234;7.268;2022-12-18T08:00:30;-10.30;99.90
11079;DHT22;5592;49.234;7.268;2022-12-18T08:02:56;-10.20;99.90
11079;DHT22;5592;49.234;7.268;2022-12-18T08:05:22;-10.00;99.90
11079;DHT22;5592;49.234;7.268;2022-12-18T08:07:48;-9.80;99.90
11079;DHT22;5592;49.234;7.268;2022-12-18T08:10:13;-9.60;99.90
11079;DHT22;5592;49.234;7.268;2022-12-18T08:12:39;-9.40;99.90
11079;DHT22;5592;49.234;7.268;2022-12-18T08:15:05;-9.10;99.90
11079;DHT22;5592;49.234;7.268;2022-12-18T08:17:34;-8.90;99.90
11079;DHT22;5592;49.234;7.268;2022-12-18T08:19:59;-8.60;99.90
11079;DHT22;5592;49.234;7.268;2022-12-18T08:22:25;-8.40;99.90
11079;DHT22;5592;49.234;7.268;2022-12-18T08:24:51;-8.10;99.90
11079;DHT22;5592;49.234;7.268;2022-12-18T08:27:16;-8.00;99.90
11079;DHT22;5592;49.234;7.268;2022-12-18T08:29:42;-7.90;99.90
11079;DHT22;5592;49.234;7.268;2022-12-18T08:32:08;-7.90;99.90
11079;DHT22;5592;49.234;7.268;2022-12-18T08:34:33;-7.80;99.90
11079;DHT22;5592;49.234;7.268;2022-12-18T08:36:59;-7.90;99.90
11079;DHT22;5592;49.234;7.268;2022-12-18T08:39:25;-8.00;99.90
11079;DHT22;5592;49.234;7.268;2022-12-18T08:41:50;-8.00;99.90
11079;DHT22;5592;49.234;7.268;2022-12-18T08:44:45;-8.00;99.90
11079;DHT22;5592;49.234;7.268;2022-12-18T08:47:11;-8.00;99.90
11079;DHT22;5592;49.234;7.268;2022-12-18T08:49:36;-8.00;99.90
11079;DHT22;5592;49.234;7.268;2022-12-18T08:52:02;-8.00;99.90
11079;DHT22;5592;49.234;7.268;2022-12-18T08:54:28;-7.90;99.90
11079;DHT22;5592;49.234;7.268;2022-12-18T08:56:54;-7.80;99.90
11079;DHT22;5592;49.234;7.268;2022-12-18T08:59:20;-7.70;99.90
11079;DHT22;5592;49.234;7.268;2022-12-18T09:01:46;-7.60;99.90
11079;DHT22;5592;49.234;7.268;2022-12-18T09:04:12;-7.50;99.90
11079;DHT22;5592;49.234;7.268;2022-12-18T09:06:39;-7.40;99.90
11079;DHT22;5592;49.234;7.268;2022-12-18T09:09:09;-7.30;99.90
11079;DHT22;5592;49.234;7.268;2022-12-18T09:11:35;-7.20;99.90
11079;DHT22;5592;49.234;7.268;2022-12-18T09:14:01;-7.10;99.90
11079;DHT22;5592;49.234;7.268;2022-12-18T09:16:28;-7.00;99.90
11079;DHT22;5592;49.234;7.268;2022-12-18T09:18:58;-6.90;99.90
11079;DHT22;5592;49.234;7.268;2022-12-18T09:21:32;-6.90;99.90
11079;DHT22;5592;49.234;7.268;2022-12-18T09:23:58;-6.80;99.90
11079;DHT22;5592;49.234;7.268;2022-12-18T09:26:25;-6.70;99.90
11079;DHT22;5592;49.234;7.268;2022-12-18T09:28:51;-6.60;99.90
11079;DHT22;5592;49.234;7.268;2022-12-18T09:31:19;-6.50;99.90
11079;DHT22;5592;49.234;7.268;2022-12-18T09:33:44;-6.30;99.90
11079;DHT22;5592;49.234;7.268;2022-12-18T09:36:15;-6.20;99.90
11079;DHT22;5592;49.234;7.268;2022-12-18T09:38:41;-6.20;99.90
11079;DHT22;5592;49.234;7.268;2022-12-18T09:46:43;-6.10;99.90
11079;DHT22;5592;49.234;7.268;2022-12-18T09:49:13;-5.90;99.90
11079;DHT22;5592;49.234;7.268;2022-12-18T09:52:08;-5.80;99.90
11079;DHT22;5592;49.234;7.268;2022-12-18T09:54:38;-5.70;99.90
11079;DHT22;5592;49.234;7.268;2022-12-18T09:57:04;-5.70;99.90
11079;DHT22;5592;49.234;7.268;2022-12-18T09:59:37;-5.60;99.90
11079;DHT22;5592;49.234;7.268;2022-12-18T10:02:18;-5.60;99.90
11079;DHT22;5592;49.234;7.268;2022-12-18T10:05:10;-5.70;99.90
11079;DHT22;5592;49.234;7.268;2022-12-18T10:13:02;-5.60;99.90
11079;DHT22;5592;49.234;7.268;2022-12-18T10:15:49;-5.40;99.90
11079;DHT22;5592;49.234;7.268;2022-12-18T10:21:11;-5.50;99.90
11079;DHT22;5592;49.234;7.268;2022-12-18T10:26:42;-5.20;99.90
11079;DHT22;5592;49.234;7.268;2022-12-18T10:29:12;-4.90;99.90
11079;DHT22;5592;49.234;7.268;2022-12-18T10:31:38;-4.80;99.90
11079;DHT22;5592;49.234;7.268;2022-12-18T10:34:04;-4.80;99.90
11079;DHT22;5592;49.234;7.268;2022-12-18T10:36:29;-4.70;99.90
11079;DHT22;5592;49.234;7.268;2022-12-18T10:39:15;-4.60;99.90
11079;DHT22;5592;49.234;7.268;2022-12-18T10:41:41;-4.60;99.90
11079;DHT22;5592;49.234;7.268;2022-12-18T10:44:12;-4.50;99.90
11079;DHT22;5592;49.234;7.268;2022-12-18T10:46:41;-4.30;99.90
11079;DHT22;5592;49.234;7.268;2022-12-18T10:49:22;-4.20;99.90
11079;DHT22;5592;49.234;7.268;2022-12-18T10:51:49;-4.30;99.90
11079;DHT22;5592;49.234;7.268;2022-12-18T10:56:41;-4.60;99.90
11079;DHT22;5592;49.234;7.268;2022-12-18T10:59:09;-4.40;99.90
11079;DHT22;5592;49.234;7.268;2022-12-18T11:01:54;-4.50;99.90
11079;DHT22;5592;49.234;7.268;2022-12-18T11:04:30;-4.40;99.90
11079;DHT22;5592;49.234;7.268;2022-12-18T11:07:06;-4.50;99.90
11079;DHT22;5592;49.234;7.268;2022-12-18T11:09:36;-4.50;99.90
11079;DHT22;5592;49.234;7.268;2022-12-18T11:12:05;-4.40;99.90
11079;DHT22;5592;49.234;7.268;2022-12-18T11:14:48;-4.30;99.90
11079;DHT22;5592;49.234;7.268;2022-12-18T11:17:25;-4.20;99.90
11079;DHT22;5592;49.234;7.268;2022-12-18T11:19:55;-4.10;99.90
11079;DHT22;5592;49.234;7.268;2022-12-18T11:22:28;-4.00;99.90
11079;DHT22;5592;49.234;7.268;2022-12-18T11:24:58;-3.90;99.90
11079;DHT22;5592;49.234;7.268;2022-12-18T11:27:25;-3.80;99.90
11079;DHT22;5592;49.234;7.268;2022-12-18T11:29:51;-4.00;99.90
11079;DHT22;5592;49.234;7.268;2022-12-18T11:32:35;-3.90;99.90
11079;DHT22;5592;49.234;7.268;2022-12-18T11:35:12;-3.70;99.90
11079;DHT22;5592;49.234;7.268;2022-12-18T11:37:41;-3.70;99.90
11079;DHT22;5592;49.234;7.268;2022-12-18T11:40:16;-3.80;99.90
11079;DHT22;5592;49.234;7.268;2022-12-18T11:42:52;-3.70;99.90
11079;DHT22;5592;49.234;7.268;2022-12-18T11:45:29;-3.60;99.90
11079;DHT22;5592;49.234;7.268;2022-12-18T11:48:17;-3.70;99.90
11079;DHT22;5592;49.234;7.268;2022-12-18T11:50:51;-3.70;99.90
11079;DHT22;5592;49.234;7.268;2022-12-18T11:53:18;-3.60;99.90
11079;DHT22;5592;49.234;7.268;2022-12-18T12:01:23;-3.30;99.90
11079;DHT22;5592;49.234;7.268;2022-12-18T12:20:41;-3.20;99.90
11079;DHT22;5592;49.234;7.268;2022-12-18T12:26:09;-2.70;99.90
11079;DHT22;5592;49.234;7.268;2022-12-18T12:31:40;-2.50;99.90
11079;DHT22;5592;49.234;7.268;2022-12-18T12:34:18;-2.60;99.90
11079;DHT22;5592;49.234;7.268;2022-12-18T12:39:40;-2.60;99.90
11079;DHT22;5592;49.234;7.268;2022-12-18T12:42:26;-2.60;99.90
11079;DHT22;5592;49.234;7.268;2022-12-18T12:51:17;-2.30;99.90
11079;DHT22;5592;49.234;7.268;2022-12-18T12:53:44;-2.20;99.90
11079;DHT22;5592;49.234;7.268;2022-12-18T12:56:13;-2.10;99.90
11079;DHT22;5592;49.234;7.268;2022-12-18T13:01:28;-2.10;99.90
11079;DHT22;5592;49.234;7.268;2022-12-18T13:07:15;-2.30;99.90
11079;DHT22;5592;49.234;7.268;2022-12-18T13:15:39;-2.30;99.90
11079;DHT22;5592;49.234;7.268;2022-12-18T13:20:35;-2.40;99.90
11079;DHT22;5592;49.234;7.268;2022-12-18T13:25:44;-2.30;99.90
11079;DHT22;5592;49.234;7.268;2022-12-18T13:28:12;-2.30;99.90
11079;DHT22;5592;49.234;7.268;2022-12-18T13:30:57;-2.30;99.90
11079;DHT22;5592;49.234;7.268;2022-12-18T13:36:15;-2.20;99.90
11079;DHT22;5592;49.234;7.268;2022-12-18T13:38:43;-2.10;99.90
11079;DHT22;5592;49.234;7.268;2022-12-18T13:43:49;-2.20;99.90
11079;DHT22;5592;49.234;7.268;2022-12-18T13:46:46;-2.30;99.90
11079;DHT22;5592;49.234;7.268;2022-12-18T13:51:44;-2.30;99.90
11079;DHT22;5592;49.234;7.268;2022-12-18T13:57:01;-2.20;99.90
11079;DHT22;5592;49.234;7.268;2022-12-18T13:59:37;-2.20;99.90
11079;DHT22;5592;49.234;7.268;2022-12-18T14:02:15;-2.20;99.90
11079;DHT22;5592;49.234;7.268;2022-12-18T14:04:41;-2.20;99.90
11079;DHT22;5592;49.234;7.268;2022-12-18T14:07:15;-2.20;99.90
11079;DHT22;5592;49.234;7.268;2022-12-18T14:09:47;-2.30;99.90
11079;DHT22;5592;49.234;7.268;2022-12-18T14:12:22;-2.30;99.90
11079;DHT22;5592;49.234;7.268;2022-12-18T14:15:43;-2.40;99.90
11079;DHT22;5592;49.234;7.268;2022-12-18T14:21:22;-2.70;99.90
11079;DHT22;5592;49.234;7.268;2022-12-18T14:23:49;-2.80;99.90
11079;DHT22;5592;49.234;7.268;2022-12-18T14:26:22;-2.80;99.90
11079;DHT22;5592;49.234;7.268;2022-12-18T14:28:49;-2.70;99.90
11079;DHT22;5592;49.234;7.268;2022-12-18T14:31:24;-2.80;99.90
11079;DHT22;5592;49.234;7.268;2022-12-18T14:33:50;-2.80;99.90
11079;DHT22;5592;49.234;7.268;2022-12-18T14:36:18;-2.80;99.90
11079;DHT22;5592;49.234;7.268;2022-12-18T14:38:51;-2.80;99.90
11079;DHT22;5592;49.234;7.268;2022-12-18T14:41:19;-2.90;99.90
11079;DHT22;5592;49.234;7.268;2022-12-18T14:43:48;-2.90;99.90
11079;DHT22;5592;49.234;7.268;2022-12-18T14:48:55;-2.80;99.90
11079;DHT22;5592;49.234;7.268;2022-12-18T14:51:23;-2.90;99.90
11079;DHT22;5592;49.234;7.268;2022-12-18T14:53:57;-3.00;99.90
11079;DHT22;5592;49.234;7.268;2022-12-18T14:56:29;-3.00;99.90
11079;DHT22;5592;49.234;7.268;2022-12-18T14:59:00;-3.10;99.90
11079;DHT22;5592;49.234;7.268;2022-12-18T15:02:15;-3.00;99.90
11079;DHT22;5592;49.234;7.268;2022-12-18T15:04:43;-3.00;99.90
11079;DHT22;5592;49.234;7.268;2022-12-18T15:07:15;-3.00;99.90
11079;DHT22;5592;49.234;7.268;2022-12-18T15:09:43;-3.10;99.90
11079;DHT22;5592;49.234;7.268;2022-12-18T15:12:39;-3.10;99.90
11079;DHT22;5592;49.234;7.268;2022-12-18T15:20:43;-3.30;99.90
11079;DHT22;5592;49.234;7.268;2022-12-18T15:23:52;-3.30;99.90
11079;DHT22;5592;49.234;7.268;2022-12-18T15:26:18;-3.40;99.90
11079;DHT22;5592;49.234;7.268;2022-12-18T15:28:55;-3.40;99.90
11079;DHT22;5592;49.234;7.268;2022-12-18T15:31:23;-3.40;99.90
11079;DHT22;5592;49.234;7.268;2022-12-18T15:36:19;-3.40;99.90
11079;DHT22;5592;49.234;7.268;2022-12-18T15:38:50;-3.40;99.90
11079;DHT22;5592;49.234;7.268;2022-12-18T15:41:21;-3.50;99.90
11079;DHT22;5592;49.234;7.268;2022-12-18T15:43:49;-3.50;99.90
11079;DHT22;5592;49.234;7.268;2022-12-18T15:46:23;-3.50;99.90
11079;DHT22;5592;49.234;7.268;2022-12-18T15:48:51;-3.50;99.90
11079;DHT22;5592;49.234;7.268;2022-12-18T15:51:24;-3.60;99.90
11079;DHT22;5592;49.234;7.268;2022-12-18T15:53:55;-3.60;99.90
11079;DHT22;5592;49.234;7.268;2022-12-18T15:56:21;-3.70;99.90
11079;DHT22;5592;49.234;7.268;2022-12-18T15:59:14;-3.70;99.90
11079;DHT22;5592;49.234;7.268;2022-12-18T16:01:41;-3.80;99.90
11079;DHT22;5592;49.234;7.268;2022-12-18T16:04:11;-3.80;99.90
11079;DHT22;5592;49.234;7.268;2022-12-18T16:06:37;-3.90;99.90
11079;DHT22;5592;49.234;7.268;2022-12-18T16:09:03;-3.90;99.90
11079;DHT22;5592;49.234;7.268;2022-12-18T16:11:30;-3.90;99.90
11079;DHT22;5592;49.234;7.268;2022-12-18T16:16:40;-3.90;99.90
11079;DHT22;5592;49.234;7.268;2022-12-18T16:19:07;-3.80;99.90
11079;DHT22;5592;49.234;7.268;2022-12-18T16:21:32;-3.80;99.90
11079;DHT22;5592;49.234;7.268;2022-12-18T16:23:58;-3.90;99.90
11079;DHT22;5592;49.234;7.268;2022-12-18T16:26:24;-3.80;99.90
11079;DHT22;5592;49.234;7.268;2022-12-18T16:28:49;-3.80;99.90
11079;DHT22;5592;49.234;7.268;2022-12-18T16:31:15;-3.80;99.90
11079;DHT22;5592;49.234;7.268;2022-12-18T16:33:40;-3.80;99.90
11079;DHT22;5592;49.234;7.268;2022-12-18T16:36:06;-3.90;99.90
11079;DHT22;5592;49.234;7.268;2022-12-18T16:38:33;-3.90;99.90
11079;DHT22;5592;49.234;7.268;2022-12-18T16:41:02;-3.90;99.90
11079;DHT22;5592;49.234;7.268;2022-12-18T16:43:59;-3.90;99.90
11079;DHT22;5592;49.234;7.268;2022-12-18T16:46:25;-3.80;99.90
11079;DHT22;5592;49.234;7.268;2022-12-18T16:48:51;-3.80;99.90
11079;DHT22;5592;49.234;7.268;2022-12-18T16:51:16;-3.70;99.90
11079;DHT22;5592;49.234;7.268;2022-12-18T16:53:42;-3.70;99.90
11079;DHT22;5592;49.234;7.268;2022-12-18T16:56:08;-3.70;99.90
11079;DHT22;5592;49.234;7.268;2022-12-18T16:58:33;-3.80;99.90
11079;DHT22;5592;49.234;7.268;2022-12-18T17:00:59;-3.90;99.90
11079;DHT22;5592;49.234;7.268;2022-12-18T17:03:25;-3.90;99.90
11079;DHT22;5592;49.234;7.268;2022-12-18T17:05:50;-3.80;99.90
11079;DHT22;5592;49.234;7.268;2022-12-18T17:08:16;-3.70;99.90
11079;DHT22;5592;49.234;7.268;2022-12-18T17:10:42;-3.60;99.90
11079;DHT22;5592;49.234;7.268;2022-12-18T17:13:07;-3.60;99.90
11079;DHT22;5592;49.234;7.268;2022-12-18T17:15:36;-3.80;99.90
11079;DHT22;5592;49.234;7.268;2022-12-18T17:18:02;-3.80;99.90
11079;DHT22;5592;49.234;7.268;2022-12-18T17:20:29;-3.90;99.90
11079;DHT22;5592;49.234;7.268;2022-12-18T17:22:55;-3.90;99.90
11079;DHT22;5592;49.234;7.268;2022-12-18T17:25:21;-3.90;99.90
11079;DHT22;5592;49.234;7.268;2022-12-18T17:27:46;-3.80;99.90
11079;DHT22;5592;49.234;7.268;2022-12-18T17:30:12;-3.70;99.90
11079;DHT22;5592;49.234;7.268;2022-12-18T17:32:38;-3.60;99.90
11079;DHT22;5592;49.234;7.268;2022-12-18T17:35:04;-3.50;99.90
11079;DHT22;5592;49.234;7.268;2022-12-18T17:37:29;-3.40;99.90
11079;DHT22;5592;49.234;7.268;2022-12-18T17:39:55;-3.30;99.90
11079;DHT22;5592;49.234;7.268;2022-12-18T17:42:21;-3.20;99.90
11079;DHT22;5592;49.234;7.268;2022-12-18T17:44:46;-3.20;99.90
11079;DHT22;5592;49.234;7.268;2022-12-18T17:47:13;-3.00;99.90